createdAt,value
2023-06-20T00:02:29.837Z,19.62
2023-06-20T00:05:32.777Z,19.66
2023-06-20T00:08:35.503Z,19.70
2023-06-20T00:11:38.251Z,19.67
2023-06-20T00:14:41.011Z,19.70
2023-06-20T00:17:43.831Z,19.68
2023-06-20T00:20:47.661Z,19.67
2023-06-20T00:23:50.456Z,19.65
2023-06-20T00:26:53.225Z,19.78
2023-06-20T00:29:55.998Z,19.89
2023-06-20T00:33:01.844Z,19.76
2023-06-20T00:36:05.137Z,19.61
2023-06-20T00:39:07.872Z,19.68
2023-06-20T00:42:21.473Z,19.65
2023-06-20T00:45:34.869Z,19.63
2023-06-20T00:48:37.926Z,19.65
2023-06-20T00:51:41.074Z,19.63
2023-06-20T00:54:48.243Z,19.54
2023-06-20T00:57:51.390Z,19.48
2023-06-20T01:00:54.150Z,19.42
2023-06-20T01:03:57.629Z,19.44
2023-06-20T01:07:09.384Z,19.41
2023-06-20T01:10:34.824Z,19.36
2023-06-20T01:13:44.679Z,19.37
2023-06-20T01:16:52.716Z,19.39
2023-06-20T01:20:25.102Z,19.46
2023-06-20T01:23:33.835Z,19.44
2023-06-20T01:27:11.413Z,19.34
2023-06-20T01:30:22.053Z,19.24
2023-06-20T01:33:30.332Z,19.26
2023-06-20T01:36:48.408Z,19.28
2023-06-20T01:39:53.187Z,19.40
2023-06-20T01:42:59.752Z,19.44
2023-06-20T01:46:05.981Z,19.48
2023-06-20T01:49:12.599Z,19.45
2023-06-20T01:52:17.807Z,19.47
2023-06-20T01:55:22.424Z,19.44
2023-06-20T01:58:26.779Z,19.43
2023-06-20T02:01:31.586Z,19.37
2023-06-20T02:04:38.580Z,19.32
2023-06-20T02:07:44.602Z,19.42
2023-06-20T02:10:47.881Z,19.39
2023-06-20T02:13:53.069Z,19.38
2023-06-20T02:17:01.993Z,19.37
2023-06-20T02:20:06.299Z,19.41
2023-06-20T02:23:11.354Z,19.37
2023-06-20T02:26:18.652Z,19.29
2023-06-20T02:29:23.626Z,19.20
2023-06-20T02:32:28.017Z,19.10
2023-06-20T02:35:33.674Z,19.12
2023-06-20T02:38:36.537Z,19.00
2023-06-20T02:41:43.120Z,19.08
2023-06-20T02:44:46.032Z,19.10
2023-06-20T02:48:03.911Z,19.10
2023-06-20T02:51:16.820Z,19.07
2023-06-20T02:54:28.007Z,19.04
2023-06-20T02:57:32.695Z,18.97
2023-06-20T03:00:37.583Z,18.93
2023-06-20T03:03:46.639Z,18.83
2023-06-20T03:06:52.476Z,18.94
2023-06-20T03:09:57.144Z,18.92
2023-06-20T03:13:00.700Z,18.99
2023-06-20T03:16:06.029Z,19.03
2023-06-20T03:19:11.869Z,19.04
2023-06-20T03:22:17.233Z,19.14
2023-06-20T03:25:21.046Z,19.05
2023-06-20T03:28:23.826Z,18.87
2023-06-20T03:31:29.458Z,18.64
2023-06-20T03:34:34.490Z,18.73
2023-06-20T03:37:39.276Z,18.88
2023-06-20T03:40:42.073Z,18.65
2023-06-20T03:43:44.786Z,18.94
2023-06-20T03:46:48.555Z,19.19
2023-06-20T03:49:51.515Z,19.15
2023-06-20T03:52:55.094Z,19.14
2023-06-20T03:55:57.975Z,19.23
2023-06-20T03:59:00.862Z,19.36
2023-06-20T04:02:05.295Z,19.42
2023-06-20T04:05:09.737Z,19.27
2023-06-20T04:08:14.541Z,19.37
2023-06-20T04:11:17.484Z,19.47
2023-06-20T04:14:21.585Z,19.57
2023-06-20T04:17:24.387Z,19.73
2023-06-20T04:20:27.321Z,19.83
2023-06-20T04:23:30.155Z,19.97
2023-06-20T04:26:32.954Z,20.12
2023-06-20T04:29:35.819Z,20.33
2023-06-20T04:32:39.022Z,20.39
2023-06-20T04:35:42.734Z,20.47
2023-06-20T04:38:48.492Z,20.57
2023-06-20T04:41:51.611Z,20.61
2023-06-20T04:44:54.755Z,20.45
2023-06-20T04:47:58.672Z,20.57
2023-06-20T04:51:01.499Z,20.80
2023-06-20T04:54:04.348Z,20.93
2023-06-20T04:57:07.128Z,21.05
2023-06-20T05:00:15.453Z,21.19
2023-06-20T05:03:21.167Z,21.38
2023-06-20T05:06:23.992Z,21.48
2023-06-20T05:09:26.683Z,21.55
2023-06-20T05:12:29.481Z,21.72
2023-06-20T05:15:32.272Z,21.74
2023-06-20T05:18:35.999Z,21.87
2023-06-20T05:21:38.759Z,22.04
2023-06-20T05:24:41.574Z,22.21
2023-06-20T05:27:44.440Z,22.21
2023-06-20T05:30:47.164Z,22.30
2023-06-20T05:33:49.984Z,22.34
2023-06-20T05:36:52.751Z,22.22
2023-06-20T05:39:56.582Z,22.43
2023-06-20T05:43:00.364Z,22.48
2023-06-20T05:46:03.121Z,22.66
2023-06-20T05:49:11.143Z,22.77
2023-06-20T05:52:14.210Z,23.05
2023-06-20T05:55:16.892Z,23.19
2023-06-20T05:58:20.536Z,23.25
2023-06-20T06:01:23.292Z,23.29
2023-06-20T06:04:29.337Z,23.39
2023-06-20T06:07:32.257Z,23.49
2023-06-20T06:10:36.047Z,23.49
2023-06-20T06:13:40.093Z,23.67
2023-06-20T06:16:43.348Z,23.96
2023-06-20T06:19:46.085Z,24.09
2023-06-20T06:22:48.988Z,24.21
2023-06-20T06:25:53.442Z,24.41
2023-06-20T06:28:56.257Z,24.59
2023-06-20T06:32:00.706Z,24.60
2023-06-20T06:35:05.396Z,24.85
2023-06-20T06:38:08.666Z,25.09
2023-06-20T06:41:11.546Z,25.02
2023-06-20T06:44:14.474Z,25.19
2023-06-20T06:47:17.254Z,25.26
2023-06-20T06:50:20.073Z,25.48
2023-06-20T06:53:22.878Z,25.60
2023-06-20T06:56:25.648Z,25.81
2023-06-20T06:59:28.429Z,25.88
2023-06-20T07:02:31.216Z,26.15
2023-06-20T07:05:34.037Z,26.14
2023-06-20T07:08:36.717Z,26.14
2023-06-20T07:11:39.482Z,26.37
2023-06-20T07:14:42.253Z,26.46
2023-06-20T07:17:45.026Z,26.31
2023-06-20T07:20:47.811Z,26.48
2023-06-20T07:23:50.582Z,26.89
2023-06-20T07:26:53.382Z,27.10
2023-06-20T07:29:56.785Z,27.21
2023-06-20T07:32:59.651Z,27.29
2023-06-20T07:36:02.419Z,27.27
2023-06-20T07:39:05.211Z,27.40
2023-06-20T07:42:08.333Z,27.03
2023-06-20T07:45:11.231Z,27.26
2023-06-20T07:48:13.954Z,27.51
2023-06-20T07:51:17.262Z,27.74
2023-06-20T07:54:19.995Z,27.81
2023-06-20T07:57:22.734Z,27.94
2023-06-20T08:00:26.550Z,27.95
2023-06-20T08:03:29.459Z,28.13
2023-06-20T08:06:32.480Z,28.25
2023-06-20T08:09:35.308Z,28.41
2023-06-20T08:12:38.936Z,28.36
2023-06-20T08:15:41.663Z,28.52
2023-06-20T08:18:44.561Z,28.74
2023-06-20T08:21:47.261Z,28.69
2023-06-20T08:24:49.972Z,28.90
2023-06-20T08:28:02.087Z,29.04
2023-06-20T08:31:13.268Z,29.09
2023-06-20T08:34:16.054Z,29.05
2023-06-20T08:37:19.041Z,29.17
2023-06-20T08:40:21.863Z,29.29
2023-06-20T08:43:24.645Z,29.03
2023-06-20T08:46:27.587Z,29.57
2023-06-20T08:49:30.428Z,29.51
2023-06-20T08:52:41.001Z,29.61
2023-06-20T08:55:44.597Z,29.69
2023-06-20T08:58:47.786Z,29.69
2023-06-20T09:01:50.974Z,29.95
2023-06-20T09:05:04.281Z,30.29
2023-06-20T09:08:07.995Z,30.30
2023-06-20T09:11:12.640Z,30.12
2023-06-20T09:14:17.133Z,30.15
2023-06-20T09:17:23.487Z,29.96
2023-06-20T09:20:28.163Z,30.17
2023-06-20T09:23:32.936Z,30.43
2023-06-20T09:26:36.725Z,30.19
2023-06-20T09:29:53.104Z,30.03
2023-06-20T09:32:56.003Z,29.93
2023-06-20T09:36:18.333Z,30.24
2023-06-20T09:39:24.468Z,30.35
2023-06-20T09:42:27.251Z,30.46
2023-06-20T09:45:30.098Z,30.66
2023-06-20T09:48:35.478Z,30.66
2023-06-20T09:51:54.010Z,30.86
2023-06-20T09:54:59.670Z,30.25
2023-06-20T09:58:05.295Z,30.08
2023-06-20T10:01:14.558Z,30.23
2023-06-20T10:04:19.091Z,30.06
2023-06-20T10:07:23.072Z,30.72
2023-06-20T10:10:26.356Z,30.82
2023-06-20T10:13:30.840Z,30.64
2023-06-20T10:16:33.639Z,30.34
2023-06-20T10:19:49.033Z,30.36
2023-06-20T10:22:51.793Z,30.85
2023-06-20T10:25:59.319Z,30.89
2023-06-20T10:29:03.253Z,30.62
2023-06-20T10:32:07.651Z,30.75
2023-06-20T10:35:16.850Z,30.75
2023-06-20T10:38:19.858Z,30.90
2023-06-20T10:41:25.087Z,31.59
2023-06-20T10:44:30.724Z,31.36
2023-06-20T10:47:35.089Z,31.30
2023-06-20T10:50:40.257Z,31.36
2023-06-20T10:53:43.292Z,31.49
2023-06-20T10:56:47.904Z,31.63
2023-06-20T10:59:51.790Z,31.90
2023-06-20T11:02:56.300Z,31.76
2023-06-20T11:05:59.620Z,31.71
2023-06-20T11:09:02.649Z,31.89
2023-06-20T11:12:11.395Z,31.92
2023-06-20T11:15:29.691Z,32.19
2023-06-20T11:18:32.580Z,32.23
2023-06-20T11:21:36.623Z,31.79
2023-06-20T11:24:39.373Z,31.89
2023-06-20T11:27:42.134Z,32.07
2023-06-20T11:30:52.248Z,32.32
2023-06-20T11:34:11.199Z,32.23
2023-06-20T11:37:14.809Z,31.77
2023-06-20T11:40:17.703Z,31.75
2023-06-20T11:43:21.476Z,31.67
2023-06-20T11:46:24.285Z,31.58
2023-06-20T11:49:31.758Z,32.12
2023-06-20T11:52:36.047Z,32.30
2023-06-20T11:55:52.344Z,32.31
2023-06-20T11:58:55.253Z,32.32
2023-06-20T12:01:59.033Z,31.50
2023-06-20T12:05:04.442Z,31.87
2023-06-20T12:08:08.738Z,32.12
2023-06-20T12:11:14.492Z,32.11
2023-06-20T12:14:18.037Z,32.00
2023-06-20T12:17:20.856Z,32.40
2023-06-20T12:20:34.603Z,32.43
2023-06-20T12:23:41.453Z,32.47
2023-06-20T12:26:48.441Z,32.61
2023-06-20T12:29:51.326Z,32.60
2023-06-20T12:32:56.856Z,32.57
2023-06-20T12:36:00.102Z,32.69
2023-06-20T12:39:04.809Z,32.70
2023-06-20T12:42:07.915Z,32.51
2023-06-20T12:45:12.158Z,32.69
2023-06-20T12:48:15.271Z,32.96
2023-06-20T12:51:18.542Z,32.49
2023-06-20T12:54:21.294Z,32.96
2023-06-20T12:57:27.001Z,33.34
2023-06-20T13:00:30.560Z,33.27
2023-06-20T13:03:33.544Z,33.30
2023-06-20T13:06:36.739Z,32.68
2023-06-20T13:09:40.214Z,33.01
2023-06-20T13:12:42.973Z,33.53
2023-06-20T13:15:45.814Z,34.41
2023-06-20T13:18:48.645Z,34.75
2023-06-20T13:21:51.549Z,33.85
2023-06-20T13:24:54.317Z,34.33
2023-06-20T13:27:57.206Z,33.98
2023-06-20T13:30:59.912Z,34.38
2023-06-20T13:34:03.089Z,34.86
2023-06-20T13:37:06.241Z,35.52
2023-06-20T13:40:10.975Z,35.45
2023-06-20T13:43:13.732Z,35.80
2023-06-20T13:46:17.019Z,36.20
2023-06-20T13:49:20.173Z,36.46
2023-06-20T13:52:24.282Z,36.28
2023-06-20T13:55:27.185Z,36.18
2023-06-20T13:58:29.919Z,36.22
2023-06-20T14:01:36.024Z,36.05
2023-06-20T14:04:40.084Z,36.44
2023-06-20T14:07:43.753Z,36.51
2023-06-20T14:10:46.530Z,36.85
2023-06-20T14:13:49.315Z,36.25
2023-06-20T14:16:52.130Z,36.36
2023-06-20T14:19:55.003Z,36.82
2023-06-20T14:22:57.849Z,36.60
2023-06-20T14:26:00.637Z,36.87
2023-06-20T14:29:04.005Z,36.74
2023-06-20T14:32:08.069Z,37.08
2023-06-20T14:35:10.866Z,37.06
2023-06-20T14:38:14.654Z,36.71
2023-06-20T14:41:17.694Z,37.04
2023-06-20T14:44:20.572Z,37.24
2023-06-20T14:47:23.885Z,36.56
2023-06-20T14:50:39.119Z,36.85
2023-06-20T14:53:49.388Z,35.57
2023-06-20T14:56:52.228Z,36.47
2023-06-20T14:59:55.006Z,37.44
2023-06-20T15:02:57.861Z,37.19
2023-06-20T15:06:00.814Z,36.65
2023-06-20T15:09:03.906Z,36.79
2023-06-20T15:12:07.337Z,35.79
2023-06-20T15:15:10.374Z,35.38
2023-06-20T15:18:13.411Z,34.77
2023-06-20T15:21:16.180Z,35.06
2023-06-20T15:24:19.038Z,34.74
2023-06-20T15:27:21.816Z,34.76
2023-06-20T15:30:27.281Z,34.38
2023-06-20T15:33:30.482Z,33.82
2023-06-20T15:36:33.688Z,33.91
2023-06-20T15:39:36.427Z,33.36
2023-06-20T15:42:39.586Z,32.83
2023-06-20T15:45:42.579Z,32.78
2023-06-20T15:48:57.174Z,32.67
2023-06-20T15:52:00.492Z,32.83
2023-06-20T15:55:03.526Z,32.48
2023-06-20T15:58:06.336Z,32.45
2023-06-20T16:01:09.593Z,31.92
2023-06-20T16:04:12.500Z,31.89
2023-06-20T16:07:16.383Z,32.27
2023-06-20T16:10:19.222Z,32.36
2023-06-20T16:13:21.939Z,33.09
2023-06-20T16:16:25.630Z,33.38
2023-06-20T16:19:28.523Z,33.85
2023-06-20T16:22:31.326Z,34.43
2023-06-20T16:25:34.580Z,34.85
2023-06-20T16:28:37.817Z,35.14
2023-06-20T16:31:42.667Z,35.32
2023-06-20T16:34:45.604Z,34.81
2023-06-20T16:37:49.133Z,35.28
2023-06-20T16:40:52.246Z,34.62
2023-06-20T16:43:55.064Z,34.65
2023-06-20T16:46:58.883Z,34.65
2023-06-20T16:50:01.799Z,34.51
2023-06-20T16:53:05.373Z,34.44
2023-06-20T16:56:08.272Z,34.04
2023-06-20T16:59:11.096Z,34.44
2023-06-20T17:02:13.937Z,34.35
2023-06-20T17:05:16.864Z,33.99
2023-06-20T17:08:19.590Z,33.81
2023-06-20T17:11:23.353Z,33.36
2023-06-20T17:14:28.054Z,32.80
2023-06-20T17:17:30.967Z,32.40
2023-06-20T17:20:34.032Z,32.08
2023-06-20T17:23:39.810Z,31.62
2023-06-20T17:26:42.811Z,31.06
2023-06-20T17:29:45.524Z,30.85
2023-06-20T17:32:48.591Z,30.64
2023-06-20T17:35:51.357Z,30.44
2023-06-20T17:38:54.347Z,30.31
2023-06-20T17:41:58.132Z,30.15
2023-06-20T17:45:01.840Z,30.12
2023-06-20T17:48:05.036Z,29.96
2023-06-20T17:51:07.787Z,29.93
2023-06-20T17:54:10.536Z,29.76
2023-06-20T17:57:13.563Z,29.69
2023-06-20T18:00:16.653Z,29.57
2023-06-20T18:03:19.705Z,29.41
2023-06-20T18:06:24.508Z,29.27
2023-06-20T18:09:27.394Z,29.11
2023-06-20T18:12:30.198Z,28.95
2023-06-20T18:15:32.924Z,28.83
2023-06-20T18:18:38.699Z,28.80
2023-06-20T18:21:41.706Z,28.63
2023-06-20T18:24:44.494Z,28.54
2023-06-20T18:27:47.372Z,28.29
2023-06-20T18:30:50.083Z,27.75
2023-06-20T18:33:52.769Z,27.49
2023-06-20T18:36:55.560Z,27.54
2023-06-20T18:39:58.281Z,27.37
2023-06-20T18:43:01.191Z,27.22
2023-06-20T18:46:04.497Z,27.05
2023-06-20T18:49:07.565Z,26.85
2023-06-20T18:52:10.693Z,26.68
2023-06-20T18:55:13.685Z,26.54
2023-06-20T18:58:16.834Z,26.40
2023-06-20T19:01:19.862Z,26.25
2023-06-20T19:04:23.153Z,26.29
2023-06-20T19:07:26.482Z,26.18
2023-06-20T19:10:29.389Z,26.20
2023-06-20T19:13:32.545Z,26.09
2023-06-20T19:16:35.463Z,25.85
2023-06-20T19:19:38.173Z,25.79
2023-06-20T19:22:41.124Z,25.71
2023-06-20T19:25:43.952Z,25.68
2023-06-20T19:28:47.325Z,25.55
2023-06-20T19:31:50.666Z,25.41
2023-06-20T19:34:53.637Z,25.36
2023-06-20T19:37:56.587Z,25.26
2023-06-20T19:41:00.842Z,25.17
2023-06-20T19:44:03.665Z,25.20
2023-06-20T19:47:06.814Z,25.06
2023-06-20T19:50:10.169Z,25.08
2023-06-20T19:53:13.004Z,25.12
2023-06-20T19:56:15.832Z,25.08
2023-06-20T19:59:19.204Z,24.96
2023-06-20T20:02:25.309Z,24.78
2023-06-20T20:05:28.347Z,24.55
2023-06-20T20:08:31.264Z,24.67
2023-06-20T20:11:34.104Z,24.61
2023-06-20T20:14:36.838Z,24.37
2023-06-20T20:17:40.016Z,24.26
2023-06-20T20:20:42.726Z,24.21
2023-06-20T20:23:45.658Z,24.19
2023-06-20T20:26:53.909Z,24.18
2023-06-20T20:29:57.041Z,24.18
2023-06-20T20:32:59.982Z,24.15
2023-06-20T20:36:02.776Z,24.09
2023-06-20T20:39:05.797Z,24.00
2023-06-20T20:42:08.641Z,24.10
2023-06-20T20:45:11.939Z,23.95
2023-06-20T20:48:14.680Z,23.78
2023-06-20T20:51:17.456Z,23.84
2023-06-20T20:54:20.221Z,23.60
2023-06-20T20:57:23.300Z,23.45
2023-06-20T21:00:26.077Z,23.49
2023-06-20T21:03:29.692Z,23.62
2023-06-20T21:06:32.705Z,23.52
2023-06-20T21:09:35.551Z,23.44
2023-06-20T21:12:38.357Z,23.47
2023-06-20T21:15:41.092Z,23.55
2023-06-20T21:18:43.852Z,23.55
2023-06-20T21:21:46.622Z,23.48
2023-06-20T21:24:49.407Z,23.36
2023-06-20T21:27:52.172Z,23.12
2023-06-20T21:30:54.918Z,23.12
2023-06-20T21:34:01.448Z,23.21
2023-06-20T21:37:05.501Z,23.28
2023-06-20T21:40:10.668Z,23.25
2023-06-20T21:43:13.858Z,23.15
2023-06-20T21:46:16.670Z,23.05
2023-06-20T21:49:21.634Z,22.98
2023-06-20T21:52:24.385Z,22.96
2023-06-20T21:55:27.087Z,22.93
2023-06-20T21:58:30.110Z,22.67
2023-06-20T22:01:32.847Z,22.71
2023-06-20T22:04:35.927Z,22.69
2023-06-20T22:07:38.799Z,22.53
2023-06-20T22:10:55.364Z,22.45
2023-06-20T22:14:01.430Z,22.47
2023-06-20T22:17:04.729Z,22.46
2023-06-20T22:20:11.277Z,22.39
2023-06-20T22:23:14.063Z,22.48
2023-06-20T22:26:16.847Z,22.56
2023-06-20T22:29:20.411Z,22.63
2023-06-20T22:32:23.855Z,22.59
2023-06-20T22:35:26.748Z,22.61
2023-06-20T22:38:31.844Z,22.57
2023-06-20T22:41:34.829Z,22.55
2023-06-20T22:44:37.632Z,22.52
2023-06-20T22:47:40.443Z,22.48
2023-06-20T22:50:45.704Z,22.48
2023-06-20T22:53:49.007Z,22.47
2023-06-20T22:56:52.927Z,22.34
2023-06-20T22:59:55.730Z,22.23
2023-06-20T23:02:58.551Z,22.09
2023-06-20T23:06:01.332Z,22.01
2023-06-20T23:09:05.841Z,22.04
2023-06-20T23:12:10.607Z,22.04
2023-06-20T23:15:13.671Z,21.97
2023-06-20T23:18:22.975Z,21.92
2023-06-20T23:21:26.174Z,21.80
2023-06-20T23:24:28.953Z,21.65
2023-06-20T23:27:36.053Z,21.47
2023-06-20T23:30:38.976Z,21.54
2023-06-20T23:33:41.896Z,21.58
2023-06-20T23:36:44.623Z,21.51
2023-06-20T23:39:48.676Z,21.53
2023-06-20T23:42:51.416Z,21.46
2023-06-20T23:45:54.417Z,21.43
2023-06-20T23:48:57.162Z,21.44
2023-06-20T23:51:59.925Z,21.48
2023-06-20T23:55:03.136Z,21.54
2023-06-20T23:58:06.577Z,21.45
